createdAt,value
2022-09-25T00:01:03.477Z,2.40
2022-09-25T00:03:30.987Z,2.45
2022-09-25T00:06:03.611Z,2.25
2022-09-25T00:08:30.596Z,2.15
2022-09-25T00:10:58.301Z,2.30
2022-09-25T00:13:25.577Z,1.90
2022-09-25T00:15:57.367Z,2.05
2022-09-25T00:18:44.732Z,2.15
2022-09-25T00:21:15.049Z,2.00
2022-09-25T00:23:44.867Z,2.30
2022-09-25T00:26:14.547Z,2.40
2022-09-25T00:28:42.693Z,2.13
2022-09-25T00:31:10.849Z,2.30
2022-09-25T00:33:37.936Z,2.25
2022-09-25T00:36:09.645Z,2.30
2022-09-25T00:38:38.308Z,2.00
2022-09-25T00:41:07.395Z,2.08
2022-09-25T00:43:44.698Z,2.10
2022-09-25T00:46:25.405Z,1.90
2022-09-25T00:48:57.737Z,2.33
2022-09-25T00:51:30.479Z,2.35
2022-09-25T00:54:01.633Z,2.00
2022-09-25T00:56:37.536Z,1.80
2022-09-25T00:59:05.896Z,1.70
2022-09-25T01:01:32.952Z,2.10
2022-09-25T01:04:00.468Z,2.10
2022-09-25T01:06:28.101Z,1.90
2022-09-25T01:08:55.886Z,2.05
2022-09-25T01:11:22.901Z,1.92
2022-09-25T01:13:51.296Z,1.95
2022-09-25T01:16:59.501Z,1.90
2022-09-25T01:19:32.488Z,2.33
2022-09-25T01:22:16.216Z,2.00
2022-09-25T01:25:10.017Z,1.80
2022-09-25T01:27:44.657Z,1.95
2022-09-25T01:30:14.597Z,1.90
2022-09-25T01:32:55.469Z,1.90
2022-09-25T01:35:35.885Z,1.85
2022-09-25T01:38:15.333Z,1.85
2022-09-25T01:41:05.126Z,1.70
2022-09-25T01:44:06.733Z,1.85
2022-09-25T01:46:51.156Z,1.85
2022-09-25T01:49:43.164Z,1.80
2022-09-25T01:52:18.096Z,1.77
2022-09-25T01:54:49.358Z,1.70
2022-09-25T01:57:40.522Z,1.70
2022-09-25T02:00:21.959Z,1.63
2022-09-25T02:02:55.477Z,1.80
2022-09-25T02:05:30.195Z,1.80
2022-09-25T02:08:03.895Z,1.42
2022-09-25T02:10:56.088Z,1.63
2022-09-25T02:13:27.798Z,1.60
2022-09-25T02:16:04.717Z,1.60
2022-09-25T02:18:50.596Z,1.75
2022-09-25T02:23:51.136Z,1.75
2022-09-25T02:26:30.276Z,1.60
2022-09-25T02:28:58.482Z,1.80
2022-09-25T02:31:35.918Z,1.70
2022-09-25T02:34:04.428Z,1.70
2022-09-25T02:36:32.459Z,1.58
2022-09-25T02:39:00.941Z,1.80
2022-09-25T02:41:36.821Z,1.85
2022-09-25T02:44:34.206Z,1.60
2022-09-25T02:47:07.231Z,1.50
2022-09-25T02:49:34.136Z,1.77
2022-09-25T02:52:20.021Z,1.60
2022-09-25T02:57:34.403Z,1.70
2022-09-25T03:00:07.539Z,1.67
2022-09-25T03:02:36.877Z,1.55
2022-09-25T03:05:06.796Z,1.80
2022-09-25T03:07:54.379Z,1.67
2022-09-25T03:10:22.456Z,1.67
2022-09-25T03:12:49.466Z,1.70
2022-09-25T03:15:16.632Z,1.63
2022-09-25T03:17:43.882Z,1.60
2022-09-25T03:20:10.806Z,1.50
2022-09-25T03:22:37.831Z,1.50
2022-09-25T03:25:05.714Z,1.60
2022-09-25T03:27:32.681Z,1.70
2022-09-25T03:30:00.275Z,1.40
2022-09-25T03:32:27.281Z,1.70
2022-09-25T03:34:54.248Z,1.60
2022-09-25T03:37:21.206Z,1.60
2022-09-25T03:39:48.167Z,1.80
2022-09-25T03:42:15.137Z,1.42
2022-09-25T03:44:43.137Z,1.70
2022-09-25T03:47:10.357Z,1.90
2022-09-25T03:49:37.376Z,1.45
2022-09-25T03:52:04.336Z,1.60
2022-09-25T03:54:31.216Z,1.75
2022-09-25T03:56:58.110Z,1.60
2022-09-25T03:59:25.127Z,1.65
2022-09-25T04:01:52.217Z,1.75
2022-09-25T04:04:19.206Z,1.50
2022-09-25T04:06:46.196Z,1.60
2022-09-25T04:09:13.216Z,1.52
2022-09-25T04:11:40.172Z,1.63
2022-09-25T04:14:07.161Z,1.50
2022-09-25T04:16:34.266Z,1.60
2022-09-25T04:19:01.307Z,1.73
2022-09-25T04:21:28.355Z,1.90
2022-09-25T04:24:13.859Z,1.60
2022-09-25T04:26:40.918Z,1.80
2022-09-25T04:29:07.913Z,1.70
2022-09-25T04:31:34.995Z,1.77
2022-09-25T04:34:03.178Z,1.58
2022-09-25T04:36:30.126Z,1.75
2022-09-25T04:38:57.073Z,1.70
2022-09-25T04:41:24.052Z,1.52
2022-09-25T04:43:50.966Z,1.63
2022-09-25T04:46:21.909Z,1.73
2022-09-25T04:48:49.791Z,1.70
2022-09-25T04:51:16.736Z,1.80
2022-09-25T04:53:43.691Z,1.58
2022-09-25T04:56:15.515Z,1.73
2022-09-25T04:58:50.288Z,1.70
2022-09-25T05:01:19.375Z,1.60
2022-09-25T05:03:53.384Z,1.67
2022-09-25T05:06:21.235Z,1.67
2022-09-25T05:08:49.761Z,1.80
2022-09-25T05:11:16.766Z,1.90
2022-09-25T05:13:46.931Z,1.73
2022-09-25T05:16:14.320Z,1.70
2022-09-25T05:18:41.751Z,1.60
2022-09-25T05:21:08.897Z,1.80
2022-09-25T05:23:35.884Z,1.90
2022-09-25T05:26:03.453Z,1.83
2022-09-25T05:28:31.649Z,1.90
2022-09-25T05:31:05.839Z,1.80
2022-09-25T05:33:35.362Z,1.90
2022-09-25T05:36:03.983Z,1.95
2022-09-25T05:38:33.641Z,1.88
2022-09-25T05:41:06.286Z,1.75
2022-09-25T05:43:34.292Z,1.88
2022-09-25T05:46:01.536Z,1.63
2022-09-25T05:48:28.692Z,1.73
2022-09-25T05:50:57.571Z,1.83
2022-09-25T05:53:25.327Z,2.10
2022-09-25T05:55:53.456Z,1.77
2022-09-25T05:58:21.968Z,1.90
2022-09-25T06:00:50.186Z,1.58
2022-09-25T06:03:18.082Z,1.92
2022-09-25T06:05:46.109Z,2.00
2022-09-25T06:08:13.861Z,2.00
2022-09-25T06:10:41.548Z,1.70
2022-09-25T06:13:08.838Z,1.90
2022-09-25T06:15:38.892Z,1.83
2022-09-25T06:18:06.876Z,1.92
2022-09-25T06:20:34.506Z,1.90
2022-09-25T06:23:01.599Z,2.00
2022-09-25T06:25:32.581Z,1.92
2022-09-25T06:28:01.096Z,1.80
2022-09-25T06:30:36.618Z,1.90
2022-09-25T06:35:47.706Z,1.83
2022-09-25T06:38:17.406Z,1.83
2022-09-25T06:40:45.481Z,2.00
2022-09-25T06:43:16.628Z,2.15
2022-09-25T06:45:44.216Z,2.10
2022-09-25T06:48:16.431Z,2.10
2022-09-25T06:50:50.282Z,3.53
2022-09-25T06:53:18.712Z,8.25
2022-09-25T06:55:46.307Z,7.80
2022-09-25T06:58:16.237Z,8.77
2022-09-25T07:00:50.441Z,9.90
2022-09-25T07:03:36.256Z,11.70
2022-09-25T07:06:05.333Z,12.38
2022-09-25T07:08:32.552Z,13.05
2022-09-25T07:11:00.018Z,12.18
2022-09-25T07:13:30.164Z,12.98
2022-09-25T07:15:59.543Z,14.27
2022-09-25T07:18:28.398Z,15.75
2022-09-25T07:21:04.850Z,16.15
2022-09-25T07:23:33.632Z,17.30
2022-09-25T07:26:22.583Z,16.05
2022-09-25T07:29:04.255Z,18.17
2022-09-25T07:31:33.674Z,15.77
2022-09-25T07:34:06.060Z,17.25
2022-09-25T07:36:34.017Z,17.40
2022-09-25T07:39:01.121Z,14.82
2022-09-25T07:41:28.291Z,17.45
2022-09-25T07:46:46.259Z,18.17
2022-09-25T07:49:14.107Z,20.15
2022-09-25T07:51:41.338Z,19.13
2022-09-25T07:54:08.609Z,19.20
2022-09-25T07:56:35.784Z,16.48
2022-09-25T07:59:02.903Z,19.63
2022-09-25T08:01:29.949Z,11.80
2022-09-25T08:03:57.032Z,17.05
2022-09-25T08:06:24.016Z,17.00
2022-09-25T08:08:51.061Z,17.17
2022-09-25T08:11:18.785Z,16.83
2022-09-25T08:13:46.799Z,18.98
2022-09-25T08:16:18.800Z,17.20
2022-09-25T08:18:47.316Z,20.25
2022-09-25T08:21:16.376Z,20.75
2022-09-25T08:23:48.004Z,20.98
2022-09-25T08:26:16.659Z,20.77
2022-09-25T08:28:44.208Z,24.33
2022-09-25T08:31:11.511Z,24.25
2022-09-25T08:33:40.415Z,22.58
2022-09-25T08:36:09.727Z,21.70
2022-09-25T08:38:36.767Z,22.38
2022-09-25T08:41:23.386Z,21.80
2022-09-25T08:44:14.449Z,23.33
2022-09-25T08:47:06.696Z,23.88
2022-09-25T08:49:44.672Z,22.45
2022-09-25T08:52:16.010Z,19.98
2022-09-25T08:54:45.079Z,23.27
2022-09-25T08:57:35.207Z,21.88
2022-09-25T09:00:09.538Z,23.55
2022-09-25T09:02:44.049Z,26.40
2022-09-25T09:05:20.782Z,20.17
2022-09-25T09:07:56.047Z,19.58
2022-09-25T09:10:38.110Z,17.15
2022-09-25T09:13:17.826Z,14.40
2022-09-25T09:15:49.600Z,15.70
2022-09-25T09:18:19.422Z,12.35
2022-09-25T09:20:55.361Z,14.88
2022-09-25T09:23:33.252Z,15.85
2022-09-25T09:26:06.282Z,14.35
2022-09-25T09:28:38.842Z,14.95
2022-09-25T09:31:26.861Z,16.48
2022-09-25T09:33:56.821Z,16.02
2022-09-25T09:36:39.612Z,16.05
2022-09-25T09:39:06.560Z,13.90
2022-09-25T09:42:09.249Z,16.52
2022-09-25T09:44:51.178Z,16.33
2022-09-25T09:48:00.161Z,15.15
2022-09-25T09:50:30.642Z,15.18
2022-09-25T09:53:09.616Z,15.90
2022-09-25T09:55:44.621Z,14.82
2022-09-25T09:59:06.896Z,14.15
2022-09-25T10:01:42.010Z,15.73
2022-09-25T10:06:53.784Z,15.55
2022-09-25T10:09:20.801Z,14.27
2022-09-25T10:11:57.456Z,13.35
2022-09-25T10:14:32.375Z,15.80
2022-09-25T10:17:00.059Z,15.80
2022-09-25T10:19:29.288Z,15.95
2022-09-25T10:22:07.267Z,16.55
2022-09-25T10:24:51.951Z,16.85
2022-09-25T10:27:28.787Z,15.40
2022-09-25T10:30:04.933Z,16.75
2022-09-25T10:32:36.059Z,16.58
2022-09-25T10:35:04.337Z,17.67
2022-09-25T10:37:36.107Z,14.65
2022-09-25T10:40:08.330Z,16.50
2022-09-25T10:42:39.459Z,16.50
2022-09-25T10:45:28.725Z,16.70
2022-09-25T10:48:14.145Z,15.93
2022-09-25T10:50:42.389Z,15.25
2022-09-25T10:53:29.037Z,14.40
2022-09-25T10:56:11.278Z,14.88
2022-09-25T10:58:41.388Z,14.60
2022-09-25T11:01:13.782Z,14.65
2022-09-25T11:03:49.447Z,15.10
2022-09-25T11:08:57.379Z,7.55
2022-09-25T11:11:28.177Z,13.02
2022-09-25T11:14:03.456Z,13.52
2022-09-25T11:16:52.832Z,12.57
2022-09-25T11:19:21.216Z,13.80
2022-09-25T11:21:50.988Z,12.88
2022-09-25T11:24:24.366Z,13.32
2022-09-25T11:27:05.031Z,15.38
2022-09-25T11:29:47.249Z,14.93
2022-09-25T11:32:32.752Z,12.93
2022-09-25T11:35:25.157Z,12.73
2022-09-25T11:38:09.750Z,12.95
2022-09-25T11:41:01.226Z,12.57
2022-09-25T11:44:16.313Z,13.10
2022-09-25T11:46:50.467Z,13.38
2022-09-25T11:49:26.808Z,12.02
2022-09-25T11:52:06.832Z,11.57
2022-09-25T11:54:54.867Z,13.60
2022-09-25T11:57:36.977Z,12.63
2022-09-25T12:00:41.084Z,14.23
2022-09-25T12:03:54.256Z,14.07
2022-09-25T12:06:44.926Z,14.45
2022-09-25T12:09:26.950Z,13.95
2022-09-25T12:11:58.448Z,13.75
2022-09-25T12:14:45.376Z,13.30
2022-09-25T12:17:33.878Z,14.38
2022-09-25T12:20:18.768Z,15.18
2022-09-25T12:23:15.106Z,16.02
2022-09-25T12:26:07.066Z,14.65
2022-09-25T12:29:00.816Z,8.95
2022-09-25T12:31:46.501Z,14.00
2022-09-25T12:34:31.316Z,12.32
2022-09-25T12:37:38.744Z,12.05
2022-09-25T12:40:19.270Z,15.23
2022-09-25T12:43:07.957Z,13.85
2022-09-25T12:45:49.878Z,13.13
2022-09-25T12:48:50.046Z,14.43
2022-09-25T12:51:25.341Z,13.82
2022-09-25T12:54:23.314Z,12.82
2022-09-25T12:56:58.936Z,12.88
2022-09-25T12:59:49.196Z,12.85
2022-09-25T13:02:28.395Z,13.95
2022-09-25T13:04:59.384Z,14.27
2022-09-25T13:07:41.456Z,13.45
2022-09-25T13:10:36.735Z,12.57
2022-09-25T13:13:10.663Z,14.40
2022-09-25T13:15:41.120Z,12.95
2022-09-25T13:18:16.156Z,13.57
2022-09-25T13:21:24.242Z,12.65
2022-09-25T13:23:53.431Z,15.07
2022-09-25T13:26:27.280Z,13.93
2022-09-25T13:29:06.171Z,15.93
2022-09-25T13:31:37.148Z,15.63
2022-09-25T13:34:13.936Z,14.48
2022-09-25T13:36:56.344Z,15.55
2022-09-25T13:40:11.451Z,15.27
2022-09-25T13:42:46.333Z,15.88
2022-09-25T13:45:21.726Z,14.90
2022-09-25T13:48:07.269Z,15.68
2022-09-25T13:50:43.819Z,15.35
2022-09-25T13:53:18.839Z,14.88
2022-09-25T13:55:48.702Z,14.38
2022-09-25T13:58:23.246Z,14.98
2022-09-25T14:00:57.561Z,14.67
2022-09-25T14:03:50.229Z,14.32
2022-09-25T14:06:30.523Z,13.77
2022-09-25T14:09:01.176Z,14.27
2022-09-25T14:11:35.316Z,15.00
2022-09-25T14:14:07.847Z,13.30
2022-09-25T14:16:45.486Z,13.27
2022-09-25T14:19:24.377Z,12.65
2022-09-25T14:21:52.337Z,12.95
2022-09-25T14:24:22.006Z,13.50
2022-09-25T14:26:53.627Z,13.15
2022-09-25T14:29:26.306Z,13.63
2022-09-25T14:32:05.592Z,14.32
2022-09-25T14:34:46.302Z,13.02
2022-09-25T14:37:40.216Z,11.70
2022-09-25T14:40:34.071Z,11.60
2022-09-25T14:46:18.345Z,14.02
2022-09-25T14:48:48.081Z,12.68
2022-09-25T14:51:34.822Z,13.60
2022-09-25T14:54:05.295Z,12.40
2022-09-25T14:56:35.594Z,13.00
2022-09-25T14:59:10.504Z,14.75
2022-09-25T15:01:49.785Z,13.20
2022-09-25T15:04:43.246Z,12.45
2022-09-25T15:07:24.942Z,12.95
2022-09-25T15:09:56.103Z,12.85
2022-09-25T15:12:34.000Z,12.35
2022-09-25T15:15:11.637Z,14.15
2022-09-25T15:17:49.586Z,12.20
2022-09-25T15:20:21.019Z,11.52
2022-09-25T15:23:02.077Z,12.50
2022-09-25T15:25:35.477Z,12.35
2022-09-25T15:28:08.987Z,12.80
2022-09-25T15:30:37.897Z,12.48
2022-09-25T15:33:04.875Z,12.57
2022-09-25T15:35:32.762Z,12.05
2022-09-25T15:38:14.032Z,13.88
2022-09-25T15:40:44.272Z,13.40
2022-09-25T15:43:16.163Z,13.88
2022-09-25T15:45:57.940Z,13.00
2022-09-25T15:48:28.248Z,13.40
2022-09-25T15:50:56.202Z,12.95
2022-09-25T15:53:29.297Z,12.77
2022-09-25T15:56:19.446Z,12.80
2022-09-25T15:58:48.617Z,12.13
2022-09-25T16:01:38.706Z,13.23
2022-09-25T16:04:28.793Z,13.00
2022-09-25T16:06:55.897Z,13.45
2022-09-25T16:09:34.198Z,13.48
2022-09-25T16:12:22.746Z,12.82
2022-09-25T16:14:51.163Z,13.32
2022-09-25T16:17:39.411Z,11.93
2022-09-25T16:20:24.137Z,12.40
2022-09-25T16:22:54.447Z,12.82
2022-09-25T16:25:32.557Z,11.88
2022-09-25T16:28:10.875Z,11.77
2022-09-25T16:30:38.265Z,11.88
2022-09-25T16:33:15.142Z,11.90
2022-09-25T16:36:09.300Z,12.20
2022-09-25T16:38:38.424Z,12.30
2022-09-25T16:41:17.576Z,11.95
2022-09-25T16:43:46.711Z,11.35
2022-09-25T16:46:20.304Z,11.75
2022-09-25T16:49:01.187Z,11.10
2022-09-25T16:51:30.491Z,10.85
2022-09-25T16:54:01.187Z,11.05
2022-09-25T16:56:30.651Z,11.48
2022-09-25T16:58:58.507Z,11.32
2022-09-25T17:01:28.158Z,11.27
2022-09-25T17:04:00.078Z,10.75
2022-09-25T17:06:30.422Z,11.07
2022-09-25T17:09:00.117Z,11.13
2022-09-25T17:11:27.258Z,10.57
2022-09-25T17:13:54.611Z,10.48
2022-09-25T17:16:21.710Z,11.68
2022-09-25T17:18:48.696Z,10.93
2022-09-25T17:21:16.781Z,10.38
2022-09-25T17:23:44.637Z,9.27
2022-09-25T17:26:20.246Z,9.45
2022-09-25T17:31:16.857Z,9.32
2022-09-25T17:33:43.891Z,10.02
2022-09-25T17:36:12.503Z,10.55
2022-09-25T17:38:40.016Z,11.35
2022-09-25T17:41:20.889Z,10.63
2022-09-25T17:43:49.433Z,9.43
2022-09-25T17:46:19.231Z,9.27
2022-09-25T17:48:51.647Z,8.30
2022-09-25T17:51:23.568Z,8.48
2022-09-25T17:53:52.798Z,7.70
2022-09-25T17:56:20.002Z,8.70
2022-09-25T17:58:47.361Z,9.88
2022-09-25T18:01:22.565Z,9.40
2022-09-25T18:03:57.242Z,9.25
2022-09-25T18:06:25.626Z,10.07
2022-09-25T18:08:54.495Z,10.77
2022-09-25T18:11:22.912Z,10.30
2022-09-25T18:14:01.204Z,10.88
2022-09-25T18:16:32.837Z,12.57
2022-09-25T18:19:18.747Z,11.07
2022-09-25T18:22:04.038Z,12.88
2022-09-25T18:24:31.528Z,13.50
2022-09-25T18:26:58.756Z,12.52
2022-09-25T18:29:26.191Z,11.65
2022-09-25T18:31:53.337Z,13.30
2022-09-25T18:34:21.852Z,11.88
2022-09-25T18:36:50.014Z,9.80
2022-09-25T18:39:20.061Z,9.40
2022-09-25T18:41:48.481Z,9.35
2022-09-25T18:44:17.971Z,9.80
2022-09-25T18:46:45.368Z,13.20
2022-09-25T18:49:12.624Z,13.35
2022-09-25T18:51:40.195Z,14.00
2022-09-25T18:54:08.821Z,12.20
2022-09-25T18:56:36.105Z,5.05
2022-09-25T18:59:06.897Z,5.28
2022-09-25T19:01:38.495Z,5.32
2022-09-25T19:04:07.017Z,5.22
2022-09-25T19:06:34.597Z,5.60
2022-09-25T19:09:02.862Z,5.03
2022-09-25T19:11:29.897Z,5.78
2022-09-25T19:13:56.889Z,12.18
2022-09-25T19:16:24.331Z,12.15
2022-09-25T19:18:51.466Z,12.48
2022-09-25T19:21:22.967Z,9.57
2022-09-25T19:23:50.470Z,5.75
2022-09-25T19:26:21.066Z,6.45
2022-09-25T19:28:48.421Z,8.55
2022-09-25T19:31:21.264Z,7.97
2022-09-25T19:33:48.747Z,10.43
2022-09-25T19:36:34.942Z,8.38
2022-09-25T19:39:02.806Z,10.32
2022-09-25T19:41:32.237Z,7.00
2022-09-25T19:44:02.483Z,6.72
2022-09-25T19:46:31.461Z,9.40
2022-09-25T19:48:58.790Z,5.10
2022-09-25T19:51:26.618Z,5.28
2022-09-25T19:53:54.326Z,4.75
2022-09-25T19:56:21.356Z,6.97
2022-09-25T19:58:50.856Z,8.75
2022-09-25T20:01:24.348Z,7.95
2022-09-25T20:03:51.602Z,5.70
2022-09-25T20:06:18.861Z,9.00
2022-09-25T20:08:46.100Z,11.57
2022-09-25T20:11:18.739Z,8.18
2022-09-25T20:13:47.527Z,11.68
2022-09-25T20:16:17.446Z,13.05
2022-09-25T20:18:48.787Z,12.50
2022-09-25T20:21:17.640Z,12.95
2022-09-25T20:23:44.592Z,10.13
2022-09-25T20:26:14.359Z,11.95
2022-09-25T20:28:42.347Z,11.43
2022-09-25T20:31:14.432Z,9.80
2022-09-25T20:33:42.516Z,9.38
2022-09-25T20:36:12.586Z,9.30
2022-09-25T20:38:39.627Z,11.82
2022-09-25T20:41:09.087Z,12.23
2022-09-25T20:43:36.187Z,8.57
2022-09-25T20:46:06.262Z,11.82
2022-09-25T20:48:42.116Z,13.60
2022-09-25T20:51:11.737Z,12.35
2022-09-25T20:53:39.682Z,12.48
2022-09-25T20:56:10.738Z,10.02
2022-09-25T20:58:39.277Z,12.27
2022-09-25T21:01:09.784Z,11.75
2022-09-25T21:03:38.802Z,6.63
2022-09-25T21:06:08.678Z,13.38
2022-09-25T21:08:35.962Z,13.05
2022-09-25T21:11:03.047Z,13.02
2022-09-25T21:13:34.257Z,12.23
2022-09-25T21:16:06.027Z,13.48
2022-09-25T21:18:35.804Z,13.88
2022-09-25T21:21:10.756Z,12.32
2022-09-25T21:23:38.596Z,11.68
2022-09-25T21:26:06.976Z,10.85
2022-09-25T21:28:34.238Z,12.25
2022-09-25T21:31:12.081Z,11.40
2022-09-25T21:33:39.567Z,11.90
2022-09-25T21:36:09.286Z,12.02
2022-09-25T21:38:37.432Z,13.18
2022-09-25T21:41:06.710Z,12.50
2022-09-25T21:43:36.472Z,9.63
2022-09-25T21:46:09.427Z,12.70
2022-09-25T21:48:37.938Z,13.48
2022-09-25T21:51:06.742Z,13.93
2022-09-25T21:53:34.418Z,11.68
2022-09-25T21:56:05.346Z,10.60
2022-09-25T21:58:33.206Z,10.18
2022-09-25T22:01:04.519Z,9.32
2022-09-25T22:03:38.087Z,9.73
2022-09-25T22:06:12.647Z,11.10
2022-09-25T22:08:43.017Z,10.40
2022-09-25T22:11:11.311Z,12.90
2022-09-25T22:13:40.957Z,13.52
2022-09-25T22:16:10.387Z,14.43
2022-09-25T22:18:48.969Z,12.88
2022-09-25T22:21:18.727Z,11.35
2022-09-25T22:23:45.737Z,12.93
2022-09-25T22:26:14.067Z,11.63
2022-09-25T22:28:41.418Z,10.90
2022-09-25T22:31:20.871Z,11.27
2022-09-25T22:33:49.357Z,10.77
2022-09-25T22:36:16.353Z,12.52
2022-09-25T22:38:43.418Z,11.77
2022-09-25T22:41:12.636Z,12.63
2022-09-25T22:43:40.407Z,11.70
2022-09-25T22:46:08.982Z,12.63
2022-09-25T22:48:36.626Z,10.75
2022-09-25T22:51:06.493Z,10.40
2022-09-25T22:53:35.276Z,8.48
2022-09-25T22:56:11.100Z,7.95
2022-09-25T22:58:38.566Z,9.35
2022-09-25T23:01:09.753Z,8.77
2022-09-25T23:03:36.827Z,10.25
2022-09-25T23:06:04.536Z,9.07
2022-09-25T23:08:31.877Z,11.57
2022-09-25T23:11:07.848Z,8.45
2022-09-25T23:13:36.601Z,8.55
2022-09-25T23:16:08.339Z,13.50
2022-09-25T23:18:37.071Z,12.45
2022-09-25T23:21:05.212Z,14.52
2022-09-25T23:23:32.606Z,15.43
2022-09-25T23:26:06.320Z,14.75
2022-09-25T23:28:38.211Z,14.00
2022-09-25T23:31:16.198Z,12.75
2022-09-25T23:33:44.286Z,11.65
2022-09-25T23:36:20.410Z,13.13
2022-09-25T23:38:51.998Z,10.20
2022-09-25T23:41:24.007Z,10.82
2022-09-25T23:43:52.574Z,12.95
2022-09-25T23:46:21.990Z,15.27
2022-09-25T23:48:49.666Z,9.27
2022-09-25T23:51:18.191Z,13.38
2022-09-25T23:53:45.506Z,11.43
2022-09-25T23:56:17.946Z,14.93
2022-09-25T23:58:44.977Z,12.95
